Campanya meteocatpedra

Dades de l'estació automàtica Os de Balaguer - el Monestir d'Avellanes

?
?
Resum diari 21:30 TU
Dades diàries de l'estació meteorològica
Temperatura mitjana 23.5 °C
Temperatura màxima 29.9 °C 15:57 TU
Temperatura mínima 15.8 °C 5:00 TU
Humitat relativa mitjana 59%
Precipitació acumulada 0.0 mm
Ratxa màxima del vent (6 m) 17.6 km/h - 97º 21:30 TU
Irradiació solar global 25.3 MJ/m2

El tram horari està expressat en Temps Universal (TU). Cal sumar una hora en horari d'hivern i dues en horari d'estiu per passar a l'hora oficial.

Os de Balaguer - el Monestir d'Avellanes

Metadades estació meteorol´gica
Municipi Os de Balaguer
Comarca Noguera
Altitud 576 m
Data alta 07.07.1995
Estat actual Operativa
Dades de període
Període
TU
TM
°C
TX
°C
TN
°C
HRM
%
PPT
mm
VVM (6 m)
km/h
DVM (6 m)
graus
VVX (6 m)
km/h
RS
W/m2
00:00 - 00:30 19.2 19.5 18.7 71 0.0 5.0 64 14.4 0
00:30 - 01:00 18.7 18.8 18.7 72 0.0 6.5 66 15.5 0
01:00 - 01:30 18.7 18.8 18.6 72 0.0 6.8 67 15.8 0
01:30 - 02:00 18.8 18.9 18.5 71 0.0 5.8 71 14.0 0
02:00 - 02:30 18.1 18.5 17.7 73 0.0 4.7 73 10.4 0
02:30 - 03:00 17.5 17.7 17.2 75 0.0 4.7 79 9.7 0
03:00 - 03:30 17.0 17.2 16.8 77 0.0 5.0 84 12.2 0
03:30 - 04:00 17.1 17.3 16.7 77 0.0 5.4 78 13.0 0
04:00 - 04:30 16.3 16.6 16.2 80 0.0 4.0 60 6.8 3
04:30 - 05:00 16.0 16.2 15.8 82 0.0 1.4 59 5.4 24
05:00 - 05:30 16.2 16.8 15.8 84 0.0 0.4 65 4.0 93
05:30 - 06:00 18.1 20.0 16.8 78 0.0 1.1 68 7.9 165
06:00 - 06:30 20.6 20.9 20.1 67 0.0 4.7 111 10.8 242
06:30 - 07:00 21.1 21.4 20.8 66 0.0 5.0 99 10.8 255
07:00 - 07:30 21.5 21.7 21.1 67 0.0 3.6 87 9.4 247
07:30 - 08:00 22.1 23.1 21.4 65 0.0 4.3 77 9.7 450
08:00 - 08:30 23.8 24.4 23.2 59 0.0 3.2 75 11.2 601
08:30 - 09:00 23.5 24.0 23.2 60 0.0 1.8 186 7.9 384
09:00 - 09:30 23.9 24.3 23.3 61 0.0 2.9 245 10.4 507
09:30 - 10:00 24.3 25.3 23.7 59 0.0 3.2 204 13.0 582
10:00 - 10:30 25.5 26.4 24.5 56 0.0 4.3 236 13.0 763
10:30 - 11:00 25.5 26.3 24.9 54 0.0 3.2 232 8.6 564
11:00 - 11:30 26.3 26.8 25.6 53 0.0 4.3 263 13.7 664
11:30 - 12:00 27.2 28.0 26.1 51 0.0 4.7 244 12.2 852
12:00 - 12:30 27.4 28.5 27.1 49 0.0 3.2 227 13.3 879
12:30 - 13:00 28.3 28.6 28.0 47 0.0 4.7 212 17.3 896
13:00 - 13:30 28.4 28.7 28.0 46 0.0 3.6 246 13.0 704
13:30 - 14:00 28.7 29.3 28.1 45 0.0 5.4 234 16.9 845
14:00 - 14:30 29.0 29.4 28.6 43 0.0 4.7 250 17.3 863
14:30 - 15:00 29.3 29.6 29.0 43 0.0 6.5 245 16.2 755
15:00 - 15:30 29.2 29.7 28.9 43 0.0 5.4 245 14.0 667
15:30 - 16:00 29.1 29.9 28.7 42 0.0 3.6 214 14.0 509
16:00 - 16:30 29.5 29.9 28.8 40 0.0 5.0 241 16.9 463
16:30 - 17:00 28.3 28.8 28.1 41 0.0 2.5 220 11.2 238
17:00 - 17:30 28.8 29.2 28.0 37 0.0 3.2 217 11.5 330
17:30 - 18:00 28.9 29.2 28.7 33 0.0 3.2 235 12.2 244
18:00 - 18:30 28.5 28.8 28.1 31 0.0 1.8 216 11.2 160
18:30 - 19:00 27.3 28.1 26.1 39 0.0 1.8 260 6.5 68
19:00 - 19:30 24.7 26.0 23.8 51 0.0 2.5 127 15.8 21
19:30 - 20:00 23.3 23.7 22.9 66 0.0 6.1 108 16.2 2
20:00 - 20:30 22.4 22.8 22.1 69 0.0 6.8 113 12.6 0
20:30 - 21:00 22.1 22.1 22.0 71 0.0 6.5 113 11.5 0
21:00 - 21:30 21.7 22.1 21.2 72 0.0 7.2 107 14.0 0
21:30 - 22:00 20.8 21.1 20.3 75 0.0 6.1 96 17.6 0

Les dades en taronja només han passat un control de qualitat automàtic. Resta pendent la seva validació definitiva.